Time,TemperatureF,DewpointF,PressureIn,WindDirection,WindDirectionDegrees,WindSpeedMPH,WindSpeedGustMPH,Humidity,HourlyPrecipIn,Conditions,Clouds,dailyrainin,SoftwareType,DateUTC
2013-03-01 00:50:00,51.3,49.6,30.47,SSW,202,0.0,0.0,94,0.00,,---,0.00,VWS V14.01,2013-03-01 08:50:00,
2013-03-01 00:51:00,51.4,49.8,30.47,SSW,202,0.9,0.9,94,0.00,,---,0.00,VWS V14.01,2013-03-01 08:51:00,
2013-03-01 00:52:00,51.4,49.8,30.47,WSW,248,0.0,1.1,94,0.00,,---,0.00,VWS V14.01,2013-03-01 08:52:00,
2013-03-01 00:57:00,51.3,49.6,30.47,WNW,292,0.0,0.0,94,0.00,,---,0.00,VWS V14.01,2013-03-01 08:57:00,
2013-03-01 01:02:00,51.1,49.4,30.47,SW,225,0.0,0.0,94,0.00,,---,0.00,VWS V14.01,2013-03-01 09:02:00,
2013-03-01 01:08:00,50.9,49.2,30.47,WSW,248,0.0,0.0,94,0.00,,---,0.00,VWS V14.01,2013-03-01 09:08:00,
2013-03-01 01:13:00,50.9,49.2,30.47,WSW,248,0.0,0.0,94,0.00,,---,0.00,VWS V14.01,2013-03-01 09:13:00,
2013-03-01 01:18:00,50.7,49.3,30.47,South,180,0.0,0.0,95,0.00,,---,0.00,VWS V14.01,2013-03-01 09:18:00,
2013-03-01 01:23:00,50.7,49.3,30.47,SW,225,0.0,0.0,95,0.00,,---,0.00,VWS V14.01,2013-03-01 09:23:00,
2013-03-01 01:28:00,50.5,49.2,30.47,SW,225,0.0,0.0,95,0.00,,---,0.00,VWS V14.01,2013-03-01 09:28:00,
2013-03-01 01:33:00,50.5,49.2,30.47,SSE,158,0.0,0.0,95,0.00,,---,0.00,VWS V14.01,2013-03-01 09:33:00,
2013-03-01 01:38:00,50.4,49.0,30.47,South,180,0.0,0.0,95,0.00,,---,0.00,VWS V14.01,2013-03-01 09:38:00,
2013-03-01 01:43:00,50.5,49.2,30.47,SW,225,0.0,0.0,95,0.00,,---,0.00,VWS V14.01,2013-03-01 09:43:00,
2013-03-01 01:48:00,50.5,49.5,30.47,SW,225,1.6,4.7,96,0.00,,---,0.00,VWS V14.01,2013-03-01 09:48:00,
2013-03-01 01:53:00,50.5,49.5,30.47,SE,135,0.0,0.0,96,0.00,,---,0.00,VWS V14.01,2013-03-01 09:53:00,
2013-03-01 01:58:00,50.7,49.6,30.47,WSW,248,0.0,0.0,96,0.00,,---,0.00,VWS V14.01,2013-03-01 09:58:00,
2013-03-01 02:03:00,50.7,49.6,30.47,SSW,202,2.2,2.2,96,0.00,,---,0.00,VWS V14.01,2013-03-01 10:03:00,
2013-03-01 02:09:00,50.7,49.6,30.47,SW,225,0.0,0.0,96,0.00,,---,0.00,VWS V14.01,2013-03-01 10:09:00,
2013-03-01 02:14:00,50.7,49.6,30.47,WSW,248,0.0,0.0,96,0.00,,---,0.00,VWS V14.01,2013-03-01 10:14:00,
2013-03-01 02:19:00,50.5,49.5,30.47,WSW,248,0.0,0.0,96,0.00,,---,0.00,VWS V14.01,2013-03-01 10:19:00,
2013-03-01 02:24:00,50.5,49.5,30.47,West,270,0.0,0.0,96,0.00,,---,0.00,VWS V14.01,2013-03-01 10:24:00,
2013-03-01 02:29:00,50.4,49.3,30.47,West,270,0.0,0.0,96,0.00,,---,0.00,VWS V14.01,2013-03-01 10:29:00,
2013-03-01 02:34:00,50.4,49.3,30.47,SW,225,0.0,0.0,96,0.00,,---,0.00,VWS V14.01,2013-03-01 10:34:00,
2013-03-01 02:39:00,50.4,49.3,30.47,West,270,0.0,0.0,96,0.00,,---,0.00,VWS V14.01,2013-03-01 10:39:00,
2013-03-01 02:44:00,50.2,49.1,30.47,WSW,248,0.0,0.0,96,0.00,,---,0.00,VWS V14.01,2013-03-01 10:44:00,
2013-03-01 02:49:00,50.2,49.1,30.47,West,270,0.0,0.0,96,0.00,,---,0.00,VWS V14.01,2013-03-01 10:49:00,
2013-03-01 02:54:00,50.2,49.1,30.47,West,270,0.0,0.0,96,0.00,,---,0.00,VWS V14.01,2013-03-01 10:54:00,
2013-03-01 02:59:00,50.2,49.1,30.47,West,270,0.0,0.0,96,0.00,,---,0.00,VWS V14.01,2013-03-01 10:59:00,
2013-03-01 03:04:00,50.0,48.9,30.47,NNW,338,0.0,0.0,96,0.00,,---,0.00,VWS V14.01,2013-03-01 11:04:00,
2013-03-01 03:09:00,50.0,48.9,30.47,WNW,292,0.0,0.0,96,0.00,,---,0.00,VWS V14.01,2013-03-01 11:09:00,
2013-03-01 03:14:00,49.8,49.0,30.47,SSW,202,0.0,0.0,97,0.00,,---,0.00,VWS V14.01,2013-03-01 11:14:00,
2013-03-01 03:19:00,49.8,49.0,30.47,SSW,202,0.0,0.0,97,0.00,,---,0.00,VWS V14.01,2013-03-01 11:19:00,
2013-03-01 03:24:00,49.8,49.0,30.47,SW,225,0.0,0.0,97,0.00,,---,0.00,VWS V14.01,2013-03-01 11:24:00,
2013-03-01 03:29:00,49.8,49.0,30.47,WSW,248,0.0,0.0,97,0.00,,---,0.00,VWS V14.01,2013-03-01 11:29:00,
2013-03-01 03:34:00,49.8,49.0,30.47,NW,315,0.0,0.0,97,0.00,,---,0.00,VWS V14.01,2013-03-01 11:34:00,
2013-03-01 03:39:00,49.6,48.8,30.47,NW,315,0.0,0.0,97,0.00,,---,0.00,VWS V14.01,2013-03-01 11:39:00,
2013-03-01 03:44:00,49.5,48.7,30.47,NW,315,0.0,0.0,97,0.00,,---,0.00,VWS V14.01,2013-03-01 11:44:00,
2013-03-01 03:49:00,49.3,48.5,30.47,NW,315,0.0,0.0,97,0.00,,---,0.00,VWS V14.01,2013-03-01 11:49:00,
2013-03-01 03:54:00,49.1,48.3,30.47,NW,315,0.0,0.0,97,0.00,,---,0.00,VWS V14.01,2013-03-01 11:54:00,
2013-03-01 03:59:00,48.9,48.1,30.47,NW,315,0.0,0.0,97,0.00,,---,0.00,VWS V14.01,2013-03-01 11:59:00,
2013-03-01 04:04:00,48.7,47.9,30.47,NW,315,0.0,0.0,97,0.00,,---,0.00,VWS V14.01,2013-03-01 12:04:00,
2013-03-01 04:09:00,48.7,47.9,30.47,NW,315,0.0,0.0,97,0.00,,---,0.00,VWS V14.01,2013-03-01 12:09:00,
2013-03-01 04:14:00,48.6,47.8,30.47,NW,315,0.0,0.0,97,0.00,,---,0.00,VWS V14.01,2013-03-01 12:14:00,
2013-03-01 04:19:00,48.6,47.8,30.47,South,180,0.0,0.0,97,0.00,,---,0.00,VWS V14.01,2013-03-01 12:19:00,
2013-03-01 04:24:00,48.4,47.8,30.47,South,180,0.0,0.0,98,0.00,,---,0.00,VWS V14.01,2013-03-01 12:24:00,
2013-03-01 04:29:00,48.4,47.8,30.44,South,180,0.0,0.0,98,0.00,,---,0.00,VWS V14.01,2013-03-01 12:29:00,
2013-03-01 04:34:00,48.2,47.7,30.44,South,180,0.0,0.0,98,0.00,,---,0.00,VWS V14.01,2013-03-01 12:34:00,
2013-03-01 04:39:00,48.2,47.7,30.44,South,180,0.0,0.0,98,0.00,,---,0.00,VWS V14.01,2013-03-01 12:39:00,
2013-03-01 04:44:00,48.0,47.5,30.44,South,180,0.0,0.0,98,0.00,,---,0.00,VWS V14.01,2013-03-01 12:44:00,
2013-03-01 04:49:00,48.0,47.5,30.44,South,180,0.0,0.0,98,0.00,,---,0.00,VWS V14.01,2013-03-01 12:49:00,
2013-03-01 04:54:00,47.8,47.3,30.44,South,180,0.0,0.0,98,0.00,,---,0.00,VWS V14.01,2013-03-01 12:54:00,
2013-03-01 04:59:00,47.8,47.3,30.44,South,180,0.0,0.0,98,0.00,,---,0.00,VWS V14.01,2013-03-01 12:59:00,
2013-03-01 05:04:00,47.8,47.3,30.44,South,180,0.0,0.0,98,0.00,,---,0.00,VWS V14.01,2013-03-01 13:04:00,
2013-03-01 05:09:00,47.7,47.1,30.44,South,180,0.0,0.0,98,0.00,,---,0.00,VWS V14.01,2013-03-01 13:09:00,
2013-03-01 05:14:00,47.7,47.1,30.44,South,180,0.0,0.0,98,0.00,,---,0.00,VWS V14.01,2013-03-01 13:14:00,
2013-03-01 05:19:00,47.5,47.0,30.44,South,180,0.0,0.0,98,0.00,,---,0.00,VWS V14.01,2013-03-01 13:19:00,
2013-03-01 05:25:00,47.5,47.0,30.44,South,180,0.0,0.0,98,0.00,,---,0.00,VWS V14.01,2013-03-01 13:25:00,
2013-03-01 05:30:00,47.5,47.0,30.47,South,180,0.0,0.0,98,0.00,,---,0.00,VWS V14.01,2013-03-01 13:30:00,
2013-03-01 05:35:00,47.3,46.8,30.47,South,180,0.0,0.0,98,0.00,,---,0.00,VWS V14.01,2013-03-01 13:35:00,
2013-03-01 05:40:00,47.3,46.8,30.47,South,180,0.0,0.0,98,0.00,,---,0.00,VWS V14.01,2013-03-01 13:40:00,
2013-03-01 05:45:00,47.1,46.6,30.44,South,180,0.0,0.0,98,0.00,,---,0.00,VWS V14.01,2013-03-01 13:45:00,
2013-03-01 05:50:00,47.1,46.6,30.44,SW,225,0.0,0.0,98,0.00,,---,0.00,VWS V14.01,2013-03-01 13:50:00,
2013-03-01 05:55:00,47.1,46.6,30.44,SW,225,0.0,0.0,98,0.00,,---,0.00,VWS V14.01,2013-03-01 13:55:00,
2013-03-01 06:00:00,47.3,46.8,30.44,SW,225,0.0,0.0,98,0.00,,---,0.00,VWS V14.01,2013-03-01 14:00:00,
2013-03-01 06:05:00,47.5,47.0,30.44,SW,225,0.0,0.0,98,0.00,,---,0.00,VWS V14.01,2013-03-01 14:05:00,
2013-03-01 06:10:00,47.3,46.8,30.44,SW,225,0.0,0.0,98,0.00,,---,0.00,VWS V14.01,2013-03-01 14:10:00,
2013-03-01 06:15:00,47.1,46.6,30.44,SW,225,0.0,0.0,98,0.00,,---,0.00,VWS V14.01,2013-03-01 14:15:00,
2013-03-01 06:20:00,47.3,46.8,30.44,SW,225,0.0,0.0,98,0.00,,---,0.00,VWS V14.01,2013-03-01 14:20:00,
2013-03-01 06:25:00,47.1,46.6,30.44,NNW,338,0.0,0.0,98,0.00,,---,0.00,VWS V14.01,2013-03-01 14:25:00,
2013-03-01 06:30:00,46.9,46.4,30.47,NNW,338,0.0,0.0,98,0.00,,---,0.00,VWS V14.01,2013-03-01 14:30:00,
2013-03-01 06:35:00,46.8,46.2,30.47,NNW,338,0.0,0.0,98,0.00,,---,0.00,VWS V14.01,2013-03-01 14:35:00,
2013-03-01 06:40:00,46.8,46.2,30.47,NNW,338,0.0,0.0,98,0.00,,---,0.00,VWS V14.01,2013-03-01 14:40:00,
2013-03-01 06:45:00,46.6,46.0,30.47,NNW,338,0.0,0.0,98,0.00,,---,0.00,VWS V14.01,2013-03-01 14:45:00,
2013-03-01 06:50:00,46.4,45.9,30.47,NNW,338,0.0,0.0,98,0.00,,---,0.00,VWS V14.01,2013-03-01 14:50:00,
2013-03-01 06:55:00,46.4,45.9,30.47,NNW,338,0.0,0.0,98,0.00,,---,0.00,VWS V14.01,2013-03-01 14:55:00,
2013-03-01 07:00:00,46.2,45.7,30.47,NNW,338,0.0,0.0,98,0.00,,---,0.00,VWS V14.01,2013-03-01 15:00:00,
2013-03-01 07:06:00,46.2,45.7,30.47,NNW,338,0.0,0.0,98,0.00,,---,0.00,VWS V14.01,2013-03-01 15:06:00,
2013-03-01 07:11:00,46.2,45.7,30.47,NNW,338,0.0,0.0,98,0.00,,---,0.00,VWS V14.01,2013-03-01 15:11:00,
2013-03-01 07:16:00,46.2,45.7,30.50,NNW,338,0.0,0.0,98,0.00,,---,0.00,VWS V14.01,2013-03-01 15:16:00,
2013-03-01 07:21:00,46.4,45.9,30.50,NNW,338,0.0,0.0,98,0.00,,---,0.00,VWS V14.01,2013-03-01 15:21:00,
2013-03-01 07:26:00,46.6,46.0,30.50,NNW,338,0.0,0.0,98,0.00,,---,0.00,VWS V14.01,2013-03-01 15:26:00,
2013-03-01 07:31:00,46.8,46.2,30.47,NNW,338,0.0,0.0,98,0.00,,---,0.00,VWS V14.01,2013-03-01 15:31:00,
2013-03-01 07:36:00,46.9,46.4,30.47,NNW,338,0.0,0.0,98,0.00,,---,0.00,VWS V14.01,2013-03-01 15:36:00,
2013-03-01 07:41:00,46.9,46.4,30.47,NNW,338,0.0,0.0,98,0.00,,---,0.00,VWS V14.01,2013-03-01 15:41:00,
2013-03-01 07:46:00,46.9,46.4,30.47,NNW,338,0.0,0.0,98,0.00,,---,0.00,VWS V14.01,2013-03-01 15:46:00,
2013-03-01 07:51:00,47.1,46.6,30.47,NNW,338,0.0,0.0,98,0.00,,---,0.00,VWS V14.01,2013-03-01 15:51:00,
2013-03-01 07:56:00,47.1,46.6,30.47,NNW,338,0.0,0.0,98,0.00,,---,0.00,VWS V14.01,2013-03-01 15:56:00,
2013-03-01 08:01:00,47.3,46.8,30.47,NNW,338,0.0,0.0,98,0.00,,---,0.00,VWS V14.01,2013-03-01 16:01:00,
2013-03-01 08:06:00,47.3,46.8,30.47,NNW,338,0.0,0.0,98,0.00,,---,0.00,VWS V14.01,2013-03-01 16:06:00,
2013-03-01 08:11:00,47.5,47.0,30.47,WNW,292,0.0,0.0,98,0.00,,---,0.00,VWS V14.01,2013-03-01 16:11:00,
2013-03-01 08:16:00,47.5,47.0,30.47,WNW,292,0.0,0.0,98,0.00,,---,0.00,VWS V14.01,2013-03-01 16:16:00,
2013-03-01 08:21:00,47.7,47.1,30.47,WNW,292,0.0,0.0,98,0.00,,---,0.00,VWS V14.01,2013-03-01 16:21:00,
2013-03-01 08:27:00,47.8,47.3,30.47,NW,315,0.0,0.0,98,0.00,,---,0.00,VWS V14.01,2013-03-01 16:27:00,
2013-03-01 08:32:00,48.0,47.5,30.47,NW,315,0.0,0.0,98,0.00,,---,0.00,VWS V14.01,2013-03-01 16:32:00,
2013-03-01 08:37:00,48.4,47.8,30.47,WSW,248,0.0,0.0,98,0.00,,---,0.00,VWS V14.01,2013-03-01 16:37:00,
2013-03-01 08:42:00,48.7,48.2,30.47,West,270,0.0,0.0,98,0.00,,---,0.00,VWS V14.01,2013-03-01 16:42:00,
2013-03-01 08:47:00,48.9,48.4,30.47,West,270,0.0,0.0,98,0.00,,---,0.00,VWS V14.01,2013-03-01 16:47:00,
2013-03-01 08:52:00,49.1,48.6,30.47,West,270,0.0,0.0,98,0.00,,---,0.00,VWS V14.01,2013-03-01 16:52:00,
2013-03-01 08:57:00,49.3,48.7,30.47,NW,315,0.0,0.0,98,0.00,,---,0.00,VWS V14.01,2013-03-01 16:57:00,
2013-03-01 09:02:00,49.8,49.3,30.47,SW,225,0.0,0.0,98,0.00,,---,0.00,VWS V14.01,2013-03-01 17:02:00,
2013-03-01 09:07:00,50.2,49.6,30.47,SW,225,0.0,0.0,98,0.00,,---,0.00,VWS V14.01,2013-03-01 17:07:00,
2013-03-01 09:12:00,50.5,50.0,30.47,WSW,248,0.0,2.9,98,0.00,,---,0.00,VWS V14.01,2013-03-01 17:12:00,
2013-03-01 09:17:00,50.7,50.2,30.47,WSW,248,0.0,0.0,98,0.00,,---,0.00,VWS V14.01,2013-03-01 17:17:00,
2013-03-01 09:22:00,50.9,50.4,30.47,WSW,248,0.0,0.0,98,0.00,,---,0.00,VWS V14.01,2013-03-01 17:22:00,
2013-03-01 09:27:00,51.1,50.5,30.47,SSE,158,0.0,0.0,98,0.00,,---,0.00,VWS V14.01,2013-03-01 17:27:00,
2013-03-01 09:32:00,51.4,50.9,30.47,West,270,0.0,0.0,98,0.00,,---,0.00,VWS V14.01,2013-03-01 17:32:00,
2013-03-01 09:37:00,51.6,51.1,30.47,West,270,0.0,0.0,98,0.00,,---,0.00,VWS V14.01,2013-03-01 17:37:00,
2013-03-01 09:42:00,51.6,51.1,30.50,West,270,0.0,0.0,98,0.00,,---,0.00,VWS V14.01,2013-03-01 17:42:00,
2013-03-01 09:47:00,51.8,51.3,30.50,WSW,248,0.0,0.0,98,0.00,,---,0.00,VWS V14.01,2013-03-01 17:47:00,
2013-03-01 09:52:00,52.0,51.4,30.50,WSW,248,0.0,0.0,98,0.00,,---,0.00,VWS V14.01,2013-03-01 17:52:00,
2013-03-01 09:58:00,52.2,51.6,30.50,WSW,248,0.0,0.0,98,0.00,,---,0.00,VWS V14.01,2013-03-01 17:58:00,
2013-03-01 10:03:00,52.5,52.0,30.50,WSW,248,0.0,0.0,98,0.00,,---,0.00,VWS V14.01,2013-03-01 18:03:00,
2013-03-01 10:08:00,52.7,52.2,30.50,West,270,0.0,0.0,98,0.00,,---,0.00,VWS V14.01,2013-03-01 18:08:00,
2013-03-01 10:13:00,52.7,52.2,30.50,SW,225,2.2,3.4,98,0.00,,---,0.00,VWS V14.01,2013-03-01 18:13:00,
2013-03-01 10:18:00,52.9,52.0,30.50,SW,225,0.0,1.3,97,0.00,,---,0.00,VWS V14.01,2013-03-01 18:18:00,
2013-03-01 10:23:00,53.1,52.0,30.50,NNW,338,0.0,0.0,96,0.00,,---,0.00,VWS V14.01,2013-03-01 18:23:00,
2013-03-01 10:28:00,53.2,51.8,30.47,WSW,248,0.0,0.0,95,0.00,,---,0.00,VWS V14.01,2013-03-01 18:28:00,
2013-03-01 10:33:00,53.6,52.2,30.47,SSW,202,0.0,0.0,95,0.00,,---,0.00,VWS V14.01,2013-03-01 18:33:00,
2013-03-01 10:38:00,53.6,51.9,30.47,SW,225,2.2,2.5,94,0.00,,---,0.00,VWS V14.01,2013-03-01 18:38:00,
2013-03-01 10:43:00,53.6,51.3,30.47,SE,135,0.0,0.0,92,0.00,,---,0.00,VWS V14.01,2013-03-01 18:43:00,
2013-03-01 10:48:00,54.0,51.4,30.47,WSW,248,0.0,0.0,91,0.00,,---,0.00,VWS V14.01,2013-03-01 18:48:00,
2013-03-01 10:53:00,54.0,51.1,30.47,South,180,1.1,2.5,90,0.00,,---,0.00,VWS V14.01,2013-03-01 18:53:00,
2013-03-01 10:58:00,54.1,51.3,30.50,South,180,0.0,0.0,90,0.00,,---,0.00,VWS V14.01,2013-03-01 18:58:00,
2013-03-01 11:04:00,54.0,50.5,30.50,SSE,158,0.0,0.0,88,0.00,,---,0.00,VWS V14.01,2013-03-01 19:04:00,
2013-03-01 11:09:00,54.1,50.0,30.50,South,180,0.9,2.2,86,0.00,,---,0.00,VWS V14.01,2013-03-01 19:09:00,
2013-03-01 11:14:00,54.5,50.7,30.47,SW,225,0.0,0.0,87,0.00,,---,0.00,VWS V14.01,2013-03-01 19:14:00,
2013-03-01 11:19:00,55.4,51.6,30.47,SSE,158,0.0,0.0,87,0.00,,---,0.00,VWS V14.01,2013-03-01 19:19:00,
2013-03-01 11:24:00,56.1,52.6,30.47,South,180,2.0,2.0,88,0.00,,---,0.00,VWS V14.01,2013-03-01 19:24:00,
2013-03-01 11:29:00,56.5,52.3,30.47,WSW,248,0.0,0.0,86,0.00,,---,0.00,VWS V14.01,2013-03-01 19:29:00,
2013-03-01 11:34:00,57.4,52.6,30.47,WSW,248,0.0,2.0,84,0.00,,---,0.00,VWS V14.01,2013-03-01 19:34:00,
2013-03-01 11:39:00,57.7,52.6,30.47,SW,225,0.0,0.0,83,0.00,,---,0.00,VWS V14.01,2013-03-01 19:39:00,
2013-03-01 11:44:00,57.9,51.8,30.47,SW,225,0.0,2.0,80,0.00,,---,0.00,VWS V14.01,2013-03-01 19:44:00,
2013-03-01 11:49:00,58.3,50.0,30.47,SSW,202,0.9,3.8,74,0.00,,---,0.00,VWS V14.01,2013-03-01 19:49:00,
2013-03-01 11:54:00,58.5,49.5,30.47,SSW,202,3.4,3.4,72,0.00,,---,0.00,VWS V14.01,2013-03-01 19:54:00,
2013-03-01 11:59:00,59.0,50.4,30.47,South,180,1.6,3.4,73,0.00,,---,0.00,VWS V14.01,2013-03-01 19:59:00,
2013-03-01 12:04:00,59.2,49.8,30.47,West,270,0.0,4.0,71,0.00,,---,0.00,VWS V14.01,2013-03-01 20:04:00,
2013-03-01 12:09:00,59.0,50.0,30.47,SSW,202,1.1,1.3,72,0.00,,---,0.00,VWS V14.01,2013-03-01 20:09:00,
2013-03-01 12:14:00,59.9,50.5,30.47,SSE,158,0.0,0.0,71,0.00,,---,0.00,VWS V14.01,2013-03-01 20:14:00,
2013-03-01 12:19:00,60.4,50.6,30.47,WNW,292,3.1,3.4,70,0.00,,---,0.00,VWS V14.01,2013-03-01 20:19:00,
2013-03-01 12:24:00,60.1,48.7,30.47,SW,225,0.9,3.8,66,0.00,,---,0.00,VWS V14.01,2013-03-01 20:24:00,
2013-03-01 12:29:00,59.4,48.4,30.47,NW,315,4.0,4.0,67,0.00,,---,0.00,VWS V14.01,2013-03-01 20:29:00,
2013-03-01 12:34:00,59.0,48.1,30.47,ENE,68,2.2,4.3,67,0.00,,---,0.00,VWS V14.01,2013-03-01 20:34:00,
2013-03-01 12:39:00,58.8,48.7,30.47,South,180,2.5,2.5,69,0.00,,---,0.00,VWS V14.01,2013-03-01 20:39:00,
2013-03-01 12:44:00,59.0,49.2,30.47,WSW,248,2.0,4.0,70,0.00,,---,0.00,VWS V14.01,2013-03-01 20:44:00,
2013-03-01 12:49:00,58.5,48.3,30.47,South,180,0.0,0.0,69,0.00,,---,0.00,VWS V14.01,2013-03-01 20:49:00,
2013-03-01 12:54:00,58.5,48.7,30.47,SSW,202,0.0,0.0,70,0.00,,---,0.00,VWS V14.01,2013-03-01 20:54:00,
2013-03-01 13:00:00,58.5,49.1,30.47,WNW,292,0.0,0.0,71,0.00,,---,0.00,VWS V14.01,2013-03-01 21:00:00,
2013-03-01 13:05:00,59.4,50.0,30.47,WNW,292,0.9,0.9,71,0.00,,---,0.00,VWS V14.01,2013-03-01 21:05:00,
2013-03-01 13:10:00,59.2,49.4,30.47,WSW,248,3.4,3.4,70,0.00,,---,0.00,VWS V14.01,2013-03-01 21:10:00,
2013-03-01 13:15:00,58.8,49.1,30.44,WSW,248,3.1,3.1,70,0.00,,---,0.00,VWS V14.01,2013-03-01 21:15:00,
2013-03-01 13:20:00,58.8,49.5,30.44,SSE,158,0.0,0.0,71,0.00,,---,0.00,VWS V14.01,2013-03-01 21:20:00,
2013-03-01 13:25:00,59.2,49.4,30.44,SSW,202,0.9,2.5,70,0.00,,---,0.00,VWS V14.01,2013-03-01 21:25:00,
2013-03-01 13:30:00,59.2,49.4,30.44,South,180,0.0,2.5,70,0.00,,---,0.00,VWS V14.01,2013-03-01 21:30:00,
2013-03-01 13:35:00,59.0,49.2,30.44,WSW,248,0.0,0.0,70,0.00,,---,0.00,VWS V14.01,2013-03-01 21:35:00,
2013-03-01 13:40:00,58.6,48.9,30.44,SSE,158,1.6,2.2,70,0.00,,---,0.00,VWS V14.01,2013-03-01 21:40:00,
2013-03-01 13:46:00,58.6,49.3,30.44,SSW,202,0.0,0.9,71,0.00,,---,0.00,VWS V14.01,2013-03-01 21:46:00,
2013-03-01 13:51:00,58.8,49.5,30.44,South,180,0.0,2.0,71,0.00,,---,0.00,VWS V14.01,2013-03-01 21:51:00,
2013-03-01 13:56:00,59.4,50.0,30.44,West,270,0.0,0.0,71,0.00,,---,0.00,VWS V14.01,2013-03-01 21:56:00,
2013-03-01 14:01:00,59.9,50.5,30.44,ESE,112,2.0,2.0,71,0.00,,---,0.00,VWS V14.01,2013-03-01 22:01:00,
2013-03-01 14:06:00,60.4,50.2,30.44,SSW,202,3.6,3.6,69,0.00,,---,0.00,VWS V14.01,2013-03-01 22:06:00,
2013-03-01 14:11:00,60.4,49.0,30.44,SSW,202,2.2,2.9,66,0.00,,---,0.00,VWS V14.01,2013-03-01 22:11:00,
2013-03-01 14:16:00,60.4,49.4,30.44,SW,225,3.1,4.3,67,0.00,,---,0.00,VWS V14.01,2013-03-01 22:16:00,
2013-03-01 14:21:00,60.6,49.2,30.44,SE,135,1.6,3.6,66,0.00,,---,0.00,VWS V14.01,2013-03-01 22:21:00,
2013-03-01 14:26:00,60.6,48.8,30.44,NE,45,0.0,3.1,65,0.00,,---,0.00,VWS V14.01,2013-03-01 22:26:00,
2013-03-01 14:31:00,60.4,47.8,30.44,WSW,248,2.5,3.6,63,0.00,,---,0.00,VWS V14.01,2013-03-01 22:31:00,
2013-03-01 14:36:00,60.3,48.0,30.44,SSW,202,1.3,1.3,64,0.00,,---,0.00,VWS V14.01,2013-03-01 22:36:00,
2013-03-01 14:41:00,60.1,48.3,30.44,SSW,202,1.6,1.6,65,0.00,,---,0.00,VWS V14.01,2013-03-01 22:41:00,
2013-03-01 14:46:00,59.9,48.5,30.44,South,180,3.6,3.6,66,0.00,,---,0.00,VWS V14.01,2013-03-01 22:46:00,
2013-03-01 14:52:00,59.4,47.6,30.44,SSW,202,2.2,2.2,65,0.00,,---,0.00,VWS V14.01,2013-03-01 22:52:00,
2013-03-01 14:57:00,59.5,48.2,30.44,SSE,158,2.9,2.9,66,0.00,,---,0.00,VWS V14.01,2013-03-01 22:57:00,
2013-03-01 15:02:00,59.7,48.4,30.44,ESE,112,0.0,0.0,66,0.00,,---,0.00,VWS V14.01,2013-03-01 23:02:00,
2013-03-01 15:07:00,59.5,48.2,30.44,WSW,248,1.1,2.7,66,0.00,,---,0.00,VWS V14.01,2013-03-01 23:07:00,
2013-03-01 15:12:00,59.4,48.0,30.44,West,270,0.0,0.0,66,0.00,,---,0.00,VWS V14.01,2013-03-01 23:12:00,
2013-03-01 15:17:00,59.2,48.2,30.44,SW,225,0.0,0.0,67,0.00,,---,0.00,VWS V14.01,2013-03-01 23:17:00,
2013-03-01 15:22:00,58.6,47.7,30.44,SSE,158,0.0,1.3,67,0.00,,---,0.00,VWS V14.01,2013-03-01 23:22:00,
2013-03-01 15:27:00,58.6,48.5,30.44,SSE,158,0.0,0.0,69,0.00,,---,0.00,VWS V14.01,2013-03-01 23:27:00,
2013-03-01 15:32:00,58.8,48.7,30.44,East,90,0.0,0.0,69,0.00,,---,0.00,VWS V14.01,2013-03-01 23:32:00,
2013-03-01 15:37:00,58.5,48.3,30.44,West,270,1.1,1.1,69,0.00,,---,0.00,VWS V14.01,2013-03-01 23:37:00,
2013-03-01 15:42:00,58.8,49.1,30.44,ESE,112,0.9,0.9,70,0.00,,---,0.00,VWS V14.01,2013-03-01 23:42:00,
2013-03-01 15:47:00,58.8,48.7,30.44,South,180,0.0,4.0,69,0.00,,---,0.00,VWS V14.01,2013-03-01 23:47:00,
2013-03-01 15:52:00,58.6,48.9,30.44,WNW,292,0.0,0.0,70,0.00,,---,0.00,VWS V14.01,2013-03-01 23:52:00,
2013-03-01 15:58:00,58.6,48.9,30.44,South,180,0.0,0.0,70,0.00,,---,0.00,VWS V14.01,2013-03-01 23:58:00,
2013-03-01 16:03:00,58.5,48.7,30.44,South,180,0.9,0.9,70,0.00,,---,0.00,VWS V14.01,2013-03-02 00:03:00,
2013-03-01 16:08:00,58.1,48.8,30.44,SSW,202,0.0,0.0,71,0.00,,---,0.00,VWS V14.01,2013-03-02 00:08:00,
2013-03-01 16:13:00,58.1,48.8,30.41,SW,225,0.0,0.0,71,0.00,,---,0.00,VWS V14.01,2013-03-02 00:13:00,
2013-03-01 16:18:00,57.9,48.6,30.41,WSW,248,0.0,0.0,71,0.00,,---,0.00,VWS V14.01,2013-03-02 00:18:00,
2013-03-01 16:23:00,57.6,48.2,30.41,WSW,248,0.0,0.0,71,0.00,,---,0.00,VWS V14.01,2013-03-02 00:23:00,
2013-03-01 16:28:00,57.6,48.6,30.41,South,180,0.0,0.0,72,0.00,,---,0.00,VWS V14.01,2013-03-02 00:28:00,
2013-03-01 16:33:00,57.6,48.6,30.41,South,180,0.0,0.0,72,0.00,,---,0.00,VWS V14.01,2013-03-02 00:33:00,
2013-03-01 16:38:00,57.4,48.4,30.41,ESE,112,0.0,0.0,72,0.00,,---,0.00,VWS V14.01,2013-03-02 00:38:00,
2013-03-01 16:43:00,57.2,48.3,30.39,SSE,158,0.0,0.0,72,0.00,,---,0.00,VWS V14.01,2013-03-02 00:43:00,
2013-03-01 16:49:00,56.8,48.3,30.39,South,180,0.0,0.0,73,0.00,,---,0.00,VWS V14.01,2013-03-02 00:49:00,
2013-03-01 16:54:00,56.7,48.1,30.39,SW,225,0.0,0.0,73,0.00,,---,0.00,VWS V14.01,2013-03-02 00:54:00,
2013-03-01 16:59:00,56.7,48.5,30.39,SSW,202,0.0,0.0,74,0.00,,---,0.00,VWS V14.01,2013-03-02 00:59:00,
2013-03-01 17:04:00,56.5,48.3,30.39,WSW,248,0.0,0.0,74,0.00,,---,0.00,VWS V14.01,2013-03-02 01:04:00,
2013-03-01 17:09:00,56.3,48.1,30.39,WSW,248,0.0,0.0,74,0.00,,---,0.00,VWS V14.01,2013-03-02 01:09:00,
2013-03-01 17:14:00,55.9,47.8,30.39,WSW,248,0.0,0.0,74,0.00,,---,0.00,VWS V14.01,2013-03-02 01:14:00,
2013-03-01 17:19:00,55.8,48.0,30.39,WSW,248,0.0,0.0,75,0.00,,---,0.00,VWS V14.01,2013-03-02 01:19:00,
2013-03-01 17:24:00,55.6,47.8,30.39,WSW,248,0.0,0.0,75,0.00,,---,0.00,VWS V14.01,2013-03-02 01:24:00,
2013-03-01 17:29:00,55.4,48.0,30.41,WSW,248,0.0,0.0,76,0.00,,---,0.00,VWS V14.01,2013-03-02 01:29:00,
2013-03-01 17:34:00,55.2,47.8,30.41,WSW,248,0.0,0.0,76,0.00,,---,0.00,VWS V14.01,2013-03-02 01:34:00,
2013-03-01 17:39:00,55.0,48.0,30.41,WSW,248,0.0,0.0,77,0.00,,---,0.00,VWS V14.01,2013-03-02 01:39:00,
2013-03-01 17:44:00,54.7,47.6,30.39,WSW,248,0.0,0.0,77,0.00,,---,0.00,VWS V14.01,2013-03-02 01:44:00,
2013-03-01 17:49:00,54.3,47.6,30.39,WSW,248,0.0,0.0,78,0.00,,---,0.00,VWS V14.01,2013-03-02 01:49:00,
2013-03-01 17:54:00,54.0,47.6,30.39,WSW,248,0.0,0.0,79,0.00,,---,0.00,VWS V14.01,2013-03-02 01:54:00,
2013-03-01 17:59:00,53.6,47.3,30.39,WSW,248,0.0,0.0,79,0.00,,---,0.00,VWS V14.01,2013-03-02 01:59:00,
2013-03-01 18:05:00,53.4,47.7,30.39,WSW,248,0.0,0.0,81,0.00,,---,0.00,VWS V14.01,2013-03-02 02:05:00,
2013-03-01 18:10:00,53.2,47.9,30.39,WSW,248,0.0,0.0,82,0.00,,---,0.00,VWS V14.01,2013-03-02 02:10:00,
2013-03-01 18:15:00,53.1,47.7,30.39,WSW,248,0.0,0.0,82,0.00,,---,0.00,VWS V14.01,2013-03-02 02:15:00,
2013-03-01 18:20:00,52.9,47.9,30.39,WSW,248,0.0,0.0,83,0.00,,---,0.00,VWS V14.01,2013-03-02 02:20:00,
2013-03-01 18:25:00,52.7,47.7,30.39,WSW,248,0.0,0.0,83,0.00,,---,0.00,VWS V14.01,2013-03-02 02:25:00,
2013-03-01 18:30:00,52.5,47.5,30.39,WSW,248,0.0,0.0,83,0.00,,---,0.00,VWS V14.01,2013-03-02 02:30:00,
2013-03-01 18:35:00,52.3,47.3,30.39,WSW,248,0.0,0.0,83,0.00,,---,0.00,VWS V14.01,2013-03-02 02:35:00,
2013-03-01 18:40:00,52.2,47.5,30.39,WSW,248,0.0,0.0,84,0.00,,---,0.00,VWS V14.01,2013-03-02 02:40:00,
2013-03-01 18:45:00,52.0,47.3,30.36,WSW,248,0.0,0.0,84,0.00,,---,0.00,VWS V14.01,2013-03-02 02:45:00,
2013-03-01 18:50:00,51.6,47.0,30.36,WSW,248,0.0,0.0,84,0.00,,---,0.00,VWS V14.01,2013-03-02 02:50:00,
2013-03-01 18:55:00,51.4,47.1,30.36,WSW,248,0.0,0.0,85,0.00,,---,0.00,VWS V14.01,2013-03-02 02:55:00,
2013-03-01 19:01:00,51.1,46.7,30.39,West,270,0.0,0.0,85,0.00,,---,0.00,VWS V14.01,2013-03-02 03:01:00,
2013-03-01 19:06:00,50.9,46.6,30.39,West,270,0.0,0.0,85,0.00,,---,0.00,VWS V14.01,2013-03-02 03:06:00,
2013-03-01 19:11:00,50.5,46.5,30.39,West,270,0.0,0.0,86,0.00,,---,0.00,VWS V14.01,2013-03-02 03:11:00,
2013-03-01 19:16:00,50.2,46.2,30.36,West,270,0.0,0.0,86,0.00,,---,0.00,VWS V14.01,2013-03-02 03:16:00,
2013-03-01 19:21:00,49.8,46.1,30.36,West,270,0.0,0.0,87,0.00,,---,0.00,VWS V14.01,2013-03-02 03:21:00,
2013-03-01 19:26:00,49.3,45.9,30.36,West,270,0.0,0.0,88,0.00,,---,0.00,VWS V14.01,2013-03-02 03:26:00,
2013-03-01 19:31:00,48.9,45.5,30.39,West,270,0.0,0.0,88,0.00,,---,0.00,VWS V14.01,2013-03-02 03:31:00,
2013-03-01 19:36:00,48.6,45.5,30.39,West,270,0.0,0.0,89,0.00,,---,0.00,VWS V14.01,2013-03-02 03:36:00,
2013-03-01 19:41:00,48.4,45.0,30.39,West,270,0.0,0.0,88,0.00,,---,0.00,VWS V14.01,2013-03-02 03:41:00,
2013-03-01 19:46:00,48.4,45.3,30.39,West,270,0.0,0.0,89,0.00,,---,0.00,VWS V14.01,2013-03-02 03:46:00,
2013-03-01 19:51:00,48.2,45.4,30.39,SW,225,0.0,0.0,90,0.00,,---,0.00,VWS V14.01,2013-03-02 03:51:00,
2013-03-01 19:56:00,48.0,45.5,30.39,SW,225,0.0,0.0,91,0.00,,---,0.00,VWS V14.01,2013-03-02 03:56:00,
2013-03-01 20:02:00,47.8,45.6,30.39,SW,225,0.0,0.0,92,0.00,,---,0.00,VWS V14.01,2013-03-02 04:02:00,
2013-03-01 20:07:00,47.5,45.3,30.39,SW,225,0.0,0.0,92,0.00,,---,0.00,VWS V14.01,2013-03-02 04:07:00,
2013-03-01 20:12:00,47.3,45.1,30.39,SW,225,0.0,0.0,92,0.00,,---,0.00,VWS V14.01,2013-03-02 04:12:00,
2013-03-01 20:17:00,46.9,45.0,30.39,SW,225,0.0,0.0,93,0.00,,---,0.00,VWS V14.01,2013-03-02 04:17:00,
2013-03-01 20:22:00,46.8,44.8,30.39,SW,225,0.0,0.0,93,0.00,,---,0.00,VWS V14.01,2013-03-02 04:22:00,
2013-03-01 20:27:00,46.6,44.7,30.39,SW,225,0.0,0.0,93,0.00,,---,0.00,VWS V14.01,2013-03-02 04:27:00,
2013-03-01 20:32:00,46.4,44.5,30.39,SW,225,0.0,0.0,93,0.00,,---,0.00,VWS V14.01,2013-03-02 04:32:00,
2013-03-01 20:37:00,46.2,44.3,30.39,SW,225,0.0,0.0,93,0.00,,---,0.00,VWS V14.01,2013-03-02 04:37:00,
2013-03-01 20:42:00,46.2,44.6,30.41,SW,225,0.0,0.0,94,0.00,,---,0.00,VWS V14.01,2013-03-02 04:42:00,
2013-03-01 20:47:00,46.2,44.6,30.41,WNW,292,0.0,0.0,94,0.00,,---,0.00,VWS V14.01,2013-03-02 04:47:00,
2013-03-01 20:52:00,46.4,44.8,30.41,West,270,0.0,0.0,94,0.00,,---,0.00,VWS V14.01,2013-03-02 04:52:00,
2013-03-01 20:57:00,46.0,44.7,30.41,West,270,0.0,0.0,95,0.00,,---,0.00,VWS V14.01,2013-03-02 04:57:00,
2013-03-01 21:00:00,45.9,44.5,30.41,West,270,0.0,0.0,95,0.00,,---,0.00,VWS V14.01,2013-03-02 05:00:00,
2013-03-01 21:03:00,45.9,44.5,30.41,West,270,0.0,0.0,95,0.00,,---,0.00,VWS V14.01,2013-03-02 05:03:00,
2013-03-01 21:08:00,45.5,44.2,30.41,West,270,0.0,0.0,95,0.00,,---,0.00,VWS V14.01,2013-03-02 05:08:00,
2013-03-01 21:13:00,45.3,44.0,30.41,West,270,0.0,0.0,95,0.00,,---,0.00,VWS V14.01,2013-03-02 05:13:00,
2013-03-01 21:18:00,45.1,43.8,30.41,West,270,0.0,0.0,95,0.00,,---,0.00,VWS V14.01,2013-03-02 05:18:00,
2013-03-01 21:23:00,45.0,43.9,30.41,West,270,0.0,0.0,96,0.00,,---,0.00,VWS V14.01,2013-03-02 05:23:00,
2013-03-01 21:28:00,44.8,43.7,30.41,West,270,0.0,0.0,96,0.00,,---,0.00,VWS V14.01,2013-03-02 05:28:00,
2013-03-01 21:34:00,44.6,43.5,30.41,West,270,0.0,0.0,96,0.00,,---,0.00,VWS V14.01,2013-03-02 05:34:00,
2013-03-01 21:39:00,44.6,43.5,30.41,West,270,0.0,0.0,96,0.00,,---,0.00,VWS V14.01,2013-03-02 05:39:00,
2013-03-01 21:44:00,44.4,43.6,30.41,West,270,0.0,0.0,97,0.00,,---,0.00,VWS V14.01,2013-03-02 05:44:00,
2013-03-01 21:49:00,44.4,43.6,30.41,West,270,0.0,0.0,97,0.00,,---,0.00,VWS V14.01,2013-03-02 05:49:00,
2013-03-01 21:54:00,44.6,43.8,30.41,West,270,0.0,0.0,97,0.00,,---,0.00,VWS V14.01,2013-03-02 05:54:00,
2013-03-01 21:59:00,44.6,43.8,30.39,West,270,0.0,0.0,97,0.00,,---,0.00,VWS V14.01,2013-03-02 05:59:00,
2013-03-01 22:04:00,44.8,44.0,30.39,West,270,0.0,0.0,97,0.00,,---,0.00,VWS V14.01,2013-03-02 06:04:00,
2013-03-01 22:09:00,44.8,44.0,30.39,West,270,0.0,0.0,97,0.00,,---,0.00,VWS V14.01,2013-03-02 06:09:00,
2013-03-01 22:14:00,44.8,44.0,30.39,West,270,0.0,0.0,97,0.00,,---,0.00,VWS V14.01,2013-03-02 06:14:00,
2013-03-01 22:19:00,44.8,44.0,30.39,West,270,0.0,0.0,97,0.00,,---,0.00,VWS V14.01,2013-03-02 06:19:00,
2013-03-01 22:24:00,44.8,44.0,30.39,West,270,0.0,0.0,97,0.00,,---,0.00,VWS V14.01,2013-03-02 06:24:00,
2013-03-01 22:29:00,44.6,43.8,30.41,West,270,0.0,0.0,97,0.00,,---,0.00,VWS V14.01,2013-03-02 06:29:00,
2013-03-01 22:34:00,44.6,43.8,30.41,West,270,0.0,0.0,97,0.00,,---,0.00,VWS V14.01,2013-03-02 06:34:00,
2013-03-01 22:40:00,44.4,43.9,30.41,West,270,0.0,0.0,98,0.00,,---,0.00,VWS V14.01,2013-03-02 06:40:00,
2013-03-01 22:45:00,44.4,43.9,30.39,West,270,0.0,0.0,98,0.00,,---,0.00,VWS V14.01,2013-03-02 06:45:00,
2013-03-01 22:50:00,44.4,43.9,30.39,West,270,0.0,0.0,98,0.00,,---,0.00,VWS V14.01,2013-03-02 06:50:00,
2013-03-01 22:55:00,44.2,43.7,30.39,West,270,0.0,0.0,98,0.00,,---,0.00,VWS V14.01,2013-03-02 06:55:00,
2013-03-01 23:00:00,44.1,43.5,30.39,West,270,0.0,0.0,98,0.00,,---,0.00,VWS V14.01,2013-03-02 07:00:00,
2013-03-01 23:05:00,43.9,43.3,30.39,West,270,0.0,0.0,98,0.00,,---,0.00,VWS V14.01,2013-03-02 07:05:00,
2013-03-01 23:10:00,43.7,43.2,30.39,West,270,0.0,0.0,98,0.00,,---,0.00,VWS V14.01,2013-03-02 07:10:00,
2013-03-01 23:15:00,43.7,43.2,30.39,West,270,0.0,0.0,98,0.00,,---,0.00,VWS V14.01,2013-03-02 07:15:00,
2013-03-01 23:20:00,43.5,43.0,30.39,West,270,0.0,0.0,98,0.00,,---,0.00,VWS V14.01,2013-03-02 07:20:00,
2013-03-01 23:25:00,43.5,43.0,30.39,West,270,0.0,0.0,98,0.00,,---,0.00,VWS V14.01,2013-03-02 07:25:00,
2013-03-01 23:30:00,43.5,43.0,30.39,West,270,0.0,0.0,98,0.00,,---,0.00,VWS V14.01,2013-03-02 07:30:00,
2013-03-01 23:35:00,43.5,43.0,30.39,West,270,0.0,0.0,98,0.00,,---,0.00,VWS V14.01,2013-03-02 07:35:00,
2013-03-01 23:41:00,43.5,43.0,30.39,West,270,0.0,0.0,98,0.00,,---,0.00,VWS V14.01,2013-03-02 07:41:00,
2013-03-01 23:46:00,43.5,43.0,30.39,West,270,0.0,0.0,98,0.00,,---,0.00,VWS V14.01,2013-03-02 07:46:00,
2013-03-01 23:51:00,43.3,42.8,30.39,West,270,0.0,0.0,98,0.00,,---,0.00,VWS V14.01,2013-03-02 07:51:00,
2013-03-01 23:56:00,43.2,42.6,30.39,West,270,0.0,0.0,98,0.00,,---,0.00,VWS V14.01,2013-03-02 07:56:00,